createdAt,value
2022-10-03T00:02:09.703Z,57.95
2022-10-03T00:07:20.413Z,57.80
2022-10-03T00:13:08.763Z,58.03
2022-10-03T00:18:22.588Z,58.10
2022-10-03T00:23:29.342Z,58.28
2022-10-03T00:28:52.983Z,57.71
2022-10-03T00:33:57.848Z,57.65
2022-10-03T00:39:33.758Z,57.69
2022-10-03T00:44:38.318Z,57.85
2022-10-03T00:50:06.742Z,57.47
2022-10-03T00:55:50.640Z,57.39
2022-10-03T01:00:58.584Z,57.96
2022-10-03T01:06:19.521Z,57.88
2022-10-03T01:11:42.291Z,58.07
2022-10-03T01:16:53.613Z,58.02
2022-10-03T01:22:22.190Z,57.96
2022-10-03T01:28:02.494Z,57.63
2022-10-03T01:33:16.132Z,57.73
2022-10-03T01:38:45.701Z,57.74
2022-10-03T01:44:13.374Z,57.84
2022-10-03T01:49:41.499Z,58.46
2022-10-03T01:54:52.580Z,57.86
2022-10-03T02:00:15.904Z,58.51
2022-10-03T02:05:36.451Z,58.02
2022-10-03T02:10:51.015Z,58.24
2022-10-03T02:16:08.246Z,58.63
2022-10-03T02:21:16.201Z,59.75
2022-10-03T02:26:45.839Z,59.91
2022-10-03T02:32:07.028Z,59.79
2022-10-03T02:37:20.711Z,59.98
2022-10-03T02:42:37.430Z,59.91
2022-10-03T02:48:20.127Z,60.35
2022-10-03T02:53:42.045Z,60.15
2022-10-03T02:58:46.774Z,60.14
2022-10-03T03:04:37.500Z,60.14
2022-10-03T03:10:08.504Z,60.46
2022-10-03T03:15:38.323Z,60.61
2022-10-03T03:20:43.088Z,61.05
2022-10-03T03:26:06.121Z,60.92
2022-10-03T03:31:21.260Z,61.09
2022-10-03T03:36:54.426Z,61.14
2022-10-03T03:42:17.159Z,61.63
2022-10-03T03:47:46.856Z,61.17
2022-10-03T03:53:03.521Z,61.25
2022-10-03T03:58:14.086Z,60.79
2022-10-03T04:03:34.695Z,60.31
2022-10-03T04:08:45.964Z,60.11
2022-10-03T04:13:57.716Z,60.03
2022-10-03T04:19:08.042Z,60.20
2022-10-03T04:24:28.444Z,59.94
2022-10-03T04:29:57.749Z,60.42
2022-10-03T04:35:31.353Z,60.03
2022-10-03T04:40:44.045Z,60.45
2022-10-03T04:45:45.928Z,60.06
2022-10-03T04:51:14.133Z,60.31
2022-10-03T04:56:22.239Z,60.71
2022-10-03T05:01:29.923Z,60.33
2022-10-03T05:07:09.409Z,60.50
2022-10-03T05:12:41.139Z,60.19
2022-10-03T05:18:25.949Z,60.42
2022-10-03T05:23:39.311Z,60.06
2022-10-03T05:28:45.443Z,60.13
2022-10-03T05:34:00.290Z,60.17
2022-10-03T05:39:34.891Z,60.01
2022-10-03T05:44:59.333Z,60.36
2022-10-03T05:50:38.327Z,60.53
2022-10-03T05:55:50.868Z,60.37
2022-10-03T06:01:26.719Z,60.40
2022-10-03T06:06:59.655Z,60.01
2022-10-03T06:12:14.327Z,60.45
2022-10-03T06:17:46.975Z,60.66
2022-10-03T06:23:22.480Z,60.64
2022-10-03T06:28:39.252Z,60.11
2022-10-03T06:34:22.348Z,60.56
2022-10-03T06:39:58.138Z,60.59
2022-10-03T06:45:30.814Z,60.61
2022-10-03T06:51:10.767Z,60.59
2022-10-03T06:56:33.377Z,60.57
2022-10-03T07:01:44.416Z,61.01
2022-10-03T07:07:14.208Z,60.76
2022-10-03T07:12:34.428Z,60.90
2022-10-03T07:18:01.263Z,60.57
2022-10-03T07:23:27.450Z,60.65
2022-10-03T07:29:01.301Z,60.26
2022-10-03T07:34:18.337Z,60.37
2022-10-03T07:39:42.330Z,60.62
2022-10-03T07:44:47.202Z,60.24
2022-10-03T07:50:22.473Z,60.45
2022-10-03T07:55:49.351Z,60.21
2022-10-03T08:00:51.286Z,59.94
2022-10-03T08:06:11.349Z,59.58
2022-10-03T08:11:21.314Z,59.40
2022-10-03T08:16:35.267Z,59.38
2022-10-03T08:21:58.064Z,59.22
2022-10-03T08:27:32.790Z,59.00
2022-10-03T08:32:48.427Z,58.62
2022-10-03T08:38:10.879Z,58.85
2022-10-03T08:43:50.631Z,58.59
2022-10-03T08:49:01.966Z,57.95
2022-10-03T08:54:14.459Z,57.88
2022-10-03T08:59:28.736Z,57.42
2022-10-03T09:05:07.422Z,57.05
2022-10-03T09:10:35.434Z,56.77
2022-10-03T09:16:16.175Z,56.83
2022-10-03T09:21:26.338Z,56.67
2022-10-03T09:26:51.873Z,56.41
2022-10-03T09:32:26.023Z,55.68
2022-10-03T09:37:49.426Z,55.76
2022-10-03T09:42:59.971Z,55.09
2022-10-03T09:48:43.060Z,54.47
2022-10-03T09:54:09.549Z,53.50
2022-10-03T09:59:29.291Z,52.87
2022-10-03T10:04:54.139Z,52.01
2022-10-03T10:10:48.979Z,51.63
2022-10-03T10:16:20.864Z,51.20
2022-10-03T10:21:25.444Z,50.98
2022-10-03T10:26:51.125Z,50.75
2022-10-03T10:32:29.830Z,50.41
2022-10-03T10:37:45.404Z,49.74
2022-10-03T10:43:25.638Z,50.02
2022-10-03T10:49:19.734Z,50.03
2022-10-03T10:54:27.692Z,49.48
2022-10-03T11:00:08.091Z,49.23
2022-10-03T11:05:44.150Z,49.09
2022-10-03T11:11:13.572Z,48.89
2022-10-03T11:16:35.414Z,48.60
2022-10-03T11:21:46.380Z,48.57
2022-10-03T11:27:22.281Z,48.66
2022-10-03T11:32:41.987Z,49.17
2022-10-03T11:37:51.333Z,49.05
2022-10-03T11:43:16.583Z,49.26
2022-10-03T11:48:33.250Z,49.11
2022-10-03T11:54:07.629Z,48.98
2022-10-03T11:59:44.823Z,49.34
2022-10-03T12:05:00.660Z,49.16
2022-10-03T12:10:19.359Z,49.15
2022-10-03T12:15:35.918Z,49.03
2022-10-03T12:21:02.145Z,48.82
2022-10-03T12:26:08.130Z,48.88
2022-10-03T12:31:31.163Z,48.60
2022-10-03T12:36:54.131Z,48.62
2022-10-03T12:42:03.407Z,48.80
2022-10-03T12:47:43.968Z,48.75
2022-10-03T12:53:07.713Z,48.77
2022-10-03T12:58:27.805Z,48.67
2022-10-03T13:03:39.509Z,48.79
2022-10-03T13:08:44.659Z,48.84
2022-10-03T13:14:07.699Z,48.90
2022-10-03T13:19:20.600Z,49.12
2022-10-03T13:24:37.486Z,49.34
2022-10-03T13:29:43.329Z,49.22
2022-10-03T13:34:57.233Z,49.28
2022-10-03T13:40:09.275Z,49.30
2022-10-03T13:45:26.700Z,48.98
2022-10-03T13:50:31.067Z,49.06
2022-10-03T13:55:58.095Z,49.02
2022-10-03T14:01:25.916Z,49.32
2022-10-03T14:06:38.265Z,49.23
2022-10-03T14:11:47.937Z,49.08
2022-10-03T14:17:37.034Z,49.06
2022-10-03T14:22:54.520Z,48.92
2022-10-03T14:28:04.617Z,48.82
2022-10-03T14:33:19.860Z,49.04
2022-10-03T14:38:58.344Z,48.83
2022-10-03T14:44:12.659Z,48.99
2022-10-03T14:49:52.383Z,48.85
2022-10-03T14:54:50.605Z,48.55
2022-10-03T14:59:58.008Z,48.41
2022-10-03T15:05:24.309Z,48.42
2022-10-03T15:10:29.199Z,48.39
2022-10-03T15:15:39.615Z,48.46
2022-10-03T15:20:44.291Z,48.21
2022-10-03T15:25:53.913Z,48.38
2022-10-03T15:30:58.116Z,48.34
2022-10-03T15:36:09.351Z,48.35
2022-10-03T15:41:27.033Z,48.53
2022-10-03T15:46:39.282Z,48.78
2022-10-03T15:51:44.005Z,48.76
2022-10-03T15:56:49.606Z,48.71
2022-10-03T16:01:55.723Z,48.99
2022-10-03T16:07:03.550Z,49.21
2022-10-03T16:12:20.425Z,49.42
2022-10-03T16:17:46.541Z,49.62
2022-10-03T16:22:54.142Z,49.81
2022-10-03T16:28:03.959Z,49.80
2022-10-03T16:33:16.752Z,50.16
2022-10-03T16:38:24.975Z,50.59
2022-10-03T16:43:30.818Z,51.06
2022-10-03T16:48:53.294Z,51.10
2022-10-03T16:53:56.806Z,51.15
2022-10-03T16:59:10.721Z,51.37
2022-10-03T17:04:20.118Z,51.21
2022-10-03T17:09:44.039Z,51.15
2022-10-03T17:14:50.982Z,50.68
2022-10-03T17:20:11.291Z,50.66
2022-10-03T17:25:19.337Z,50.75
2022-10-03T17:30:23.942Z,50.78
2022-10-03T17:35:58.215Z,50.92
2022-10-03T17:41:00.494Z,51.34
2022-10-03T17:46:16.092Z,51.48
2022-10-03T17:51:31.661Z,51.42
2022-10-03T17:56:35.188Z,51.68
2022-10-03T18:01:43.122Z,52.04
2022-10-03T18:06:57.798Z,51.45
2022-10-03T18:12:25.749Z,51.86
2022-10-03T18:17:45.106Z,52.36
2022-10-03T18:22:49.738Z,53.00
2022-10-03T18:28:27.660Z,53.08
2022-10-03T18:33:34.873Z,53.50
2022-10-03T18:38:37.506Z,54.18
2022-10-03T18:43:45.735Z,54.08
2022-10-03T18:54:39.546Z,55.27
2022-10-03T18:59:54.047Z,55.83
2022-10-03T19:05:07.279Z,56.07
2022-10-03T19:10:18.414Z,56.35
2022-10-03T19:15:27.729Z,56.34
2022-10-03T19:20:38.425Z,56.25
2022-10-03T19:25:43.973Z,56.17
2022-10-03T19:30:57.364Z,56.15
2022-10-03T19:36:04.858Z,56.65
2022-10-03T19:41:19.457Z,56.42
2022-10-03T19:46:52.084Z,56.37
2022-10-03T19:52:15.984Z,56.59
2022-10-03T19:57:22.517Z,57.09
2022-10-03T20:02:27.384Z,57.63
2022-10-03T20:07:43.425Z,57.45
2022-10-03T20:12:49.940Z,57.64
2022-10-03T20:18:01.942Z,57.74
2022-10-03T20:23:06.976Z,58.01
2022-10-03T20:28:20.627Z,57.98
2022-10-03T20:33:28.199Z,58.09
2022-10-03T20:38:53.231Z,58.12
2022-10-03T20:44:47.248Z,57.60
2022-10-03T20:49:58.409Z,57.29
2022-10-03T20:55:03.200Z,56.98
2022-10-03T21:00:10.720Z,57.26
2022-10-03T21:05:47.926Z,57.55
2022-10-03T21:11:02.297Z,57.62
2022-10-03T21:16:21.197Z,57.60
2022-10-03T21:21:38.415Z,57.18
2022-10-03T21:26:55.280Z,57.61
2022-10-03T21:32:12.244Z,57.63
2022-10-03T21:37:30.318Z,57.87
2022-10-03T21:43:10.900Z,57.80
2022-10-03T21:48:27.984Z,58.23
2022-10-03T21:54:14.635Z,57.98
2022-10-03T21:59:40.966Z,58.13
2022-10-03T22:04:49.498Z,58.20
2022-10-03T22:09:56.114Z,58.07
2022-10-03T22:15:13.667Z,58.07
2022-10-03T22:20:33.943Z,57.87
2022-10-03T22:25:57.851Z,58.14
2022-10-03T22:31:02.780Z,57.83
2022-10-03T22:36:04.858Z,58.22
2022-10-03T22:41:15.676Z,58.09
2022-10-03T22:46:26.061Z,58.16
2022-10-03T22:51:28.669Z,58.05
2022-10-03T22:56:30.473Z,57.56
2022-10-03T23:01:34.762Z,57.77
2022-10-03T23:06:53.293Z,57.84
2022-10-03T23:11:57.638Z,57.78
2022-10-03T23:17:13.880Z,58.03
2022-10-03T23:22:18.904Z,57.67
2022-10-03T23:28:00.388Z,57.90
2022-10-03T23:33:02.137Z,57.92
2022-10-03T23:38:33.321Z,57.77
2022-10-03T23:43:44.254Z,57.99
2022-10-03T23:48:58.470Z,57.88
2022-10-03T23:54:04.786Z,58.29
2022-10-03T23:59:15.802Z,57.75
